sensor_id;sensor_type;location;lat;lon;timestamp;P1;durP1;ratioP1;P2;durP2;ratioP2
3795;SDS011;1913;50.660;7.834;2023-10-08T00:02:23;14.37;;;5.50;;
3795;SDS011;1913;50.660;7.834;2023-10-08T00:04:50;11.63;;;5.60;;
3795;SDS011;1913;50.660;7.834;2023-10-08T00:07:19;6.90;;;4.30;;
3795;SDS011;1913;50.660;7.834;2023-10-08T00:09:49;8.70;;;5.03;;
3795;SDS011;1913;50.660;7.834;2023-10-08T00:12:16;11.60;;;5.10;;
3795;SDS011;1913;50.660;7.834;2023-10-08T00:14:42;15.67;;;5.00;;
3795;SDS011;1913;50.660;7.834;2023-10-08T00:17:14;11.90;;;4.60;;
3795;SDS011;1913;50.660;7.834;2023-10-08T00:19:42;8.73;;;3.90;;
3795;SDS011;1913;50.660;7.834;2023-10-08T00:22:11;8.80;;;4.63;;
3795;SDS011;1913;50.660;7.834;2023-10-08T00:24:38;12.67;;;4.57;;
3795;SDS011;1913;50.660;7.834;2023-10-08T00:27:06;11.03;;;4.70;;
3795;SDS011;1913;50.660;7.834;2023-10-08T00:29:31;9.23;;;4.63;;
3795;SDS011;1913;50.660;7.834;2023-10-08T00:31:57;8.80;;;4.30;;
3795;SDS011;1913;50.660;7.834;2023-10-08T00:34:23;11.90;;;4.50;;
3795;SDS011;1913;50.660;7.834;2023-10-08T00:36:49;13.03;;;5.57;;
3795;SDS011;1913;50.660;7.834;2023-10-08T00:39:16;16.47;;;5.30;;
3795;SDS011;1913;50.660;7.834;2023-10-08T00:41:47;10.87;;;4.93;;
3795;SDS011;1913;50.660;7.834;2023-10-08T00:44:14;10.93;;;5.57;;
3795;SDS011;1913;50.660;7.834;2023-10-08T00:46:54;10.53;;;5.20;;
3795;SDS011;1913;50.660;7.834;2023-10-08T00:49:22;13.27;;;4.90;;
3795;SDS011;1913;50.660;7.834;2023-10-08T00:52:24;11.67;;;5.00;;
3795;SDS011;1913;50.660;7.834;2023-10-08T00:55:05;9.70;;;5.10;;
3795;SDS011;1913;50.660;7.834;2023-10-08T00:57:30;9.53;;;5.10;;
3795;SDS011;1913;50.660;7.834;2023-10-08T01:00:00;12.40;;;5.17;;
3795;SDS011;1913;50.660;7.834;2023-10-08T01:02:26;10.13;;;4.93;;
3795;SDS011;1913;50.660;7.834;2023-10-08T01:05:15;10.47;;;5.40;;
3795;SDS011;1913;50.660;7.834;2023-10-08T01:07:49;13.00;;;5.17;;
3795;SDS011;1913;50.660;7.834;2023-10-08T01:10:16;11.60;;;5.17;;
3795;SDS011;1913;50.660;7.834;2023-10-08T01:12:45;15.10;;;5.80;;
3795;SDS011;1913;50.660;7.834;2023-10-08T01:15:28;9.43;;;4.63;;
3795;SDS011;1913;50.660;7.834;2023-10-08T01:17:54;8.13;;;4.93;;
3795;SDS011;1913;50.660;7.834;2023-10-08T01:20:25;8.00;;;5.07;;
3795;SDS011;1913;50.660;7.834;2023-10-08T01:23:14;9.87;;;5.20;;
3795;SDS011;1913;50.660;7.834;2023-10-08T01:25:42;16.03;;;6.03;;
3795;SDS011;1913;50.660;7.834;2023-10-08T01:28:10;13.60;;;5.80;;
3795;SDS011;1913;50.660;7.834;2023-10-08T01:30:45;10.90;;;6.00;;
3795;SDS011;1913;50.660;7.834;2023-10-08T01:33:11;14.73;;;6.10;;
3795;SDS011;1913;50.660;7.834;2023-10-08T01:35:39;12.60;;;4.53;;
3795;SDS011;1913;50.660;7.834;2023-10-08T01:38:05;9.63;;;5.00;;
3795;SDS011;1913;50.660;7.834;2023-10-08T01:40:32;9.07;;;5.43;;
3795;SDS011;1913;50.660;7.834;2023-10-08T01:42:57;8.00;;;4.83;;
3795;SDS011;1913;50.660;7.834;2023-10-08T01:45:25;11.80;;;5.87;;
3795;SDS011;1913;50.660;7.834;2023-10-08T01:47:51;10.17;;;5.17;;
3795;SDS011;1913;50.660;7.834;2023-10-08T01:50:20;11.13;;;5.13;;
3795;SDS011;1913;50.660;7.834;2023-10-08T01:52:50;10.57;;;5.87;;
3795;SDS011;1913;50.660;7.834;2023-10-08T01:55:19;16.73;;;4.70;;
3795;SDS011;1913;50.660;7.834;2023-10-08T01:57:48;9.00;;;4.80;;
3795;SDS011;1913;50.660;7.834;2023-10-08T02:00:18;9.37;;;4.60;;
3795;SDS011;1913;50.660;7.834;2023-10-08T02:02:49;9.67;;;5.20;;
3795;SDS011;1913;50.660;7.834;2023-10-08T02:05:19;12.53;;;5.10;;
3795;SDS011;1913;50.660;7.834;2023-10-08T02:07:46;10.10;;;4.87;;
3795;SDS011;1913;50.660;7.834;2023-10-08T02:10:11;8.40;;;4.70;;
3795;SDS011;1913;50.660;7.834;2023-10-08T02:12:39;14.90;;;5.40;;
3795;SDS011;1913;50.660;7.834;2023-10-08T02:15:06;12.90;;;5.27;;
3795;SDS011;1913;50.660;7.834;2023-10-08T02:17:32;9.77;;;4.37;;
3795;SDS011;1913;50.660;7.834;2023-10-08T02:19:58;8.37;;;4.37;;
3795;SDS011;1913;50.660;7.834;2023-10-08T02:22:23;10.07;;;5.33;;
3795;SDS011;1913;50.660;7.834;2023-10-08T02:24:49;10.73;;;4.50;;
3795;SDS011;1913;50.660;7.834;2023-10-08T02:27:15;8.67;;;4.63;;
3795;SDS011;1913;50.660;7.834;2023-10-08T02:29:41;11.53;;;5.63;;
3795;SDS011;1913;50.660;7.834;2023-10-08T02:32:07;9.10;;;5.30;;
3795;SDS011;1913;50.660;7.834;2023-10-08T02:34:33;12.10;;;4.90;;
3795;SDS011;1913;50.660;7.834;2023-10-08T02:36:58;12.57;;;5.37;;
3795;SDS011;1913;50.660;7.834;2023-10-08T02:39:24;11.00;;;5.20;;
3795;SDS011;1913;50.660;7.834;2023-10-08T02:41:54;9.67;;;5.40;;
3795;SDS011;1913;50.660;7.834;2023-10-08T02:44:23;7.70;;;4.60;;
3795;SDS011;1913;50.660;7.834;2023-10-08T02:46:49;9.90;;;5.60;;
3795;SDS011;1913;50.660;7.834;2023-10-08T02:49:17;9.40;;;5.63;;
3795;SDS011;1913;50.660;7.834;2023-10-08T02:51:45;8.93;;;4.90;;
3795;SDS011;1913;50.660;7.834;2023-10-08T02:54:15;9.67;;;5.40;;
3795;SDS011;1913;50.660;7.834;2023-10-08T02:56:43;7.53;;;5.40;;
3795;SDS011;1913;50.660;7.834;2023-10-08T02:59:17;11.30;;;6.10;;
3795;SDS011;1913;50.660;7.834;2023-10-08T03:01:45;10.73;;;5.70;;
3795;SDS011;1913;50.660;7.834;2023-10-08T03:04:12;9.03;;;5.30;;
3795;SDS011;1913;50.660;7.834;2023-10-08T03:06:44;12.20;;;6.33;;
3795;SDS011;1913;50.660;7.834;2023-10-08T03:09:14;9.73;;;5.67;;
3795;SDS011;1913;50.660;7.834;2023-10-08T03:11:40;13.00;;;5.77;;
3795;SDS011;1913;50.660;7.834;2023-10-08T03:14:12;9.80;;;5.57;;
3795;SDS011;1913;50.660;7.834;2023-10-08T03:16:40;15.00;;;5.20;;
3795;SDS011;1913;50.660;7.834;2023-10-08T03:19:06;7.67;;;4.80;;
3795;SDS011;1913;50.660;7.834;2023-10-08T03:21:31;10.37;;;4.37;;
3795;SDS011;1913;50.660;7.834;2023-10-08T03:24:03;10.00;;;5.27;;
3795;SDS011;1913;50.660;7.834;2023-10-08T03:26:37;11.73;;;4.70;;
3795;SDS011;1913;50.660;7.834;2023-10-08T03:29:05;11.97;;;5.03;;
3795;SDS011;1913;50.660;7.834;2023-10-08T03:31:32;12.70;;;5.70;;
3795;SDS011;1913;50.660;7.834;2023-10-08T03:34:16;11.37;;;5.83;;
3795;SDS011;1913;50.660;7.834;2023-10-08T03:36:50;10.27;;;5.93;;
3795;SDS011;1913;50.660;7.834;2023-10-08T03:39:16;8.87;;;4.57;;
3795;SDS011;1913;50.660;7.834;2023-10-08T03:41:45;9.83;;;5.60;;
3795;SDS011;1913;50.660;7.834;2023-10-08T03:44:24;8.20;;;5.50;;
3795;SDS011;1913;50.660;7.834;2023-10-08T03:46:51;7.53;;;5.20;;
3795;SDS011;1913;50.660;7.834;2023-10-08T03:49:17;9.57;;;4.97;;
3795;SDS011;1913;50.660;7.834;2023-10-08T03:51:46;10.73;;;5.30;;
3795;SDS011;1913;50.660;7.834;2023-10-08T03:54:11;12.10;;;5.00;;
3795;SDS011;1913;50.660;7.834;2023-10-08T03:56:39;12.67;;;5.53;;
3795;SDS011;1913;50.660;7.834;2023-10-08T03:59:10;11.20;;;5.17;;
3795;SDS011;1913;50.660;7.834;2023-10-08T04:01:59;9.40;;;5.70;;
3795;SDS011;1913;50.660;7.834;2023-10-08T04:04:39;7.83;;;5.03;;
3795;SDS011;1913;50.660;7.834;2023-10-08T04:07:23;8.70;;;5.20;;
3795;SDS011;1913;50.660;7.834;2023-10-08T04:09:51;8.97;;;4.80;;
3795;SDS011;1913;50.660;7.834;2023-10-08T04:12:36;9.93;;;5.60;;
3795;SDS011;1913;50.660;7.834;2023-10-08T04:15:07;10.57;;;5.50;;
3795;SDS011;1913;50.660;7.834;2023-10-08T04:17:36;8.93;;;5.00;;
3795;SDS011;1913;50.660;7.834;2023-10-08T04:20:09;8.50;;;5.10;;
3795;SDS011;1913;50.660;7.834;2023-10-08T04:22:55;12.50;;;4.93;;
3795;SDS011;1913;50.660;7.834;2023-10-08T04:25:20;18.67;;;5.67;;
3795;SDS011;1913;50.660;7.834;2023-10-08T04:27:46;11.17;;;4.80;;
3795;SDS011;1913;50.660;7.834;2023-10-08T04:30:15;9.67;;;6.00;;
3795;SDS011;1913;50.660;7.834;2023-10-08T04:32:41;12.43;;;4.77;;
3795;SDS011;1913;50.660;7.834;2023-10-08T04:35:07;15.47;;;5.50;;
3795;SDS011;1913;50.660;7.834;2023-10-08T04:37:39;8.90;;;4.90;;
3795;SDS011;1913;50.660;7.834;2023-10-08T04:40:06;11.10;;;5.43;;
3795;SDS011;1913;50.660;7.834;2023-10-08T04:42:40;17.43;;;5.53;;
3795;SDS011;1913;50.660;7.834;2023-10-08T04:45:09;9.07;;;4.83;;
3795;SDS011;1913;50.660;7.834;2023-10-08T04:47:39;16.30;;;5.07;;
3795;SDS011;1913;50.660;7.834;2023-10-08T04:50:07;7.93;;;4.30;;
3795;SDS011;1913;50.660;7.834;2023-10-08T04:52:40;9.03;;;4.67;;
3795;SDS011;1913;50.660;7.834;2023-10-08T04:55:11;7.53;;;4.60;;
3795;SDS011;1913;50.660;7.834;2023-10-08T04:57:46;16.30;;;5.50;;
3795;SDS011;1913;50.660;7.834;2023-10-08T05:00:14;12.70;;;4.90;;
3795;SDS011;1913;50.660;7.834;2023-10-08T05:02:40;14.80;;;6.33;;
3795;SDS011;1913;50.660;7.834;2023-10-08T05:05:15;8.87;;;4.67;;
3795;SDS011;1913;50.660;7.834;2023-10-08T05:07:41;10.43;;;4.83;;
3795;SDS011;1913;50.660;7.834;2023-10-08T05:10:12;12.90;;;5.33;;
3795;SDS011;1913;50.660;7.834;2023-10-08T05:12:44;11.87;;;5.60;;
3795;SDS011;1913;50.660;7.834;2023-10-08T05:15:26;12.20;;;5.40;;
3795;SDS011;1913;50.660;7.834;2023-10-08T05:18:15;11.53;;;5.43;;
3795;SDS011;1913;50.660;7.834;2023-10-08T05:20:43;9.30;;;5.40;;
3795;SDS011;1913;50.660;7.834;2023-10-08T05:23:14;11.60;;;5.43;;
3795;SDS011;1913;50.660;7.834;2023-10-08T05:25:50;12.00;;;4.77;;
3795;SDS011;1913;50.660;7.834;2023-10-08T05:28:37;11.10;;;5.47;;
3795;SDS011;1913;50.660;7.834;2023-10-08T05:31:23;10.80;;;4.73;;
3795;SDS011;1913;50.660;7.834;2023-10-08T05:34:07;10.70;;;5.73;;
3795;SDS011;1913;50.660;7.834;2023-10-08T05:36:44;8.87;;;4.73;;
3795;SDS011;1913;50.660;7.834;2023-10-08T05:39:35;13.90;;;5.27;;
3795;SDS011;1913;50.660;7.834;2023-10-08T05:42:04;14.67;;;5.33;;
3795;SDS011;1913;50.660;7.834;2023-10-08T05:44:41;10.53;;;5.50;;
3795;SDS011;1913;50.660;7.834;2023-10-08T05:47:11;10.40;;;5.03;;
3795;SDS011;1913;50.660;7.834;2023-10-08T05:50:03;8.80;;;5.10;;
3795;SDS011;1913;50.660;7.834;2023-10-08T05:52:42;10.33;;;5.43;;
3795;SDS011;1913;50.660;7.834;2023-10-08T05:55:23;16.57;;;5.80;;
3795;SDS011;1913;50.660;7.834;2023-10-08T05:57:53;11.80;;;6.13;;
3795;SDS011;1913;50.660;7.834;2023-10-08T06:00:38;16.63;;;5.63;;
3795;SDS011;1913;50.660;7.834;2023-10-08T06:03:19;16.00;;;5.40;;
3795;SDS011;1913;50.660;7.834;2023-10-08T06:05:58;9.57;;;5.70;;
3795;SDS011;1913;50.660;7.834;2023-10-08T06:08:36;10.77;;;5.30;;
3795;SDS011;1913;50.660;7.834;2023-10-08T06:11:29;10.83;;;5.50;;
3795;SDS011;1913;50.660;7.834;2023-10-08T06:14:21;9.27;;;5.37;;
3795;SDS011;1913;50.660;7.834;2023-10-08T06:17:17;9.37;;;5.90;;
3795;SDS011;1913;50.660;7.834;2023-10-08T06:19:59;9.40;;;5.17;;
3795;SDS011;1913;50.660;7.834;2023-10-08T06:22:34;13.97;;;5.73;;
3795;SDS011;1913;50.660;7.834;2023-10-08T06:25:00;18.67;;;5.97;;
3795;SDS011;1913;50.660;7.834;2023-10-08T06:27:42;10.20;;;5.30;;
3795;SDS011;1913;50.660;7.834;2023-10-08T06:30:10;13.73;;;5.50;;
3795;SDS011;1913;50.660;7.834;2023-10-08T06:32:43;19.67;;;6.43;;
3795;SDS011;1913;50.660;7.834;2023-10-08T06:35:09;13.30;;;7.07;;
3795;SDS011;1913;50.660;7.834;2023-10-08T06:41:22;9.07;;;5.70;;
3795;SDS011;1913;50.660;7.834;2023-10-08T06:43:54;10.23;;;5.63;;
3795;SDS011;1913;50.660;7.834;2023-10-08T06:46:29;13.27;;;6.27;;
3795;SDS011;1913;50.660;7.834;2023-10-08T06:49:01;8.93;;;5.77;;
3795;SDS011;1913;50.660;7.834;2023-10-08T06:51:28;11.97;;;6.17;;
3795;SDS011;1913;50.660;7.834;2023-10-08T06:53:55;14.23;;;6.00;;
3795;SDS011;1913;50.660;7.834;2023-10-08T06:56:24;11.80;;;6.10;;
3795;SDS011;1913;50.660;7.834;2023-10-08T06:58:49;11.60;;;5.70;;
3795;SDS011;1913;50.660;7.834;2023-10-08T07:01:21;11.67;;;5.17;;
3795;SDS011;1913;50.660;7.834;2023-10-08T07:03:47;10.73;;;5.13;;
3795;SDS011;1913;50.660;7.834;2023-10-08T07:06:17;9.97;;;5.13;;
3795;SDS011;1913;50.660;7.834;2023-10-08T07:08:56;10.93;;;6.20;;
3795;SDS011;1913;50.660;7.834;2023-10-08T07:11:24;11.90;;;7.00;;
3795;SDS011;1913;50.660;7.834;2023-10-08T07:13:52;13.10;;;8.00;;
3795;SDS011;1913;50.660;7.834;2023-10-08T07:16:17;18.57;;;8.50;;
3795;SDS011;1913;50.660;7.834;2023-10-08T07:18:44;13.87;;;6.87;;
3795;SDS011;1913;50.660;7.834;2023-10-08T07:21:17;17.80;;;6.77;;
3795;SDS011;1913;50.660;7.834;2023-10-08T07:23:42;13.00;;;6.30;;
3795;SDS011;1913;50.660;7.834;2023-10-08T07:26:27;12.60;;;6.43;;
3795;SDS011;1913;50.660;7.834;2023-10-08T07:29:03;11.97;;;6.70;;
3795;SDS011;1913;50.660;7.834;2023-10-08T07:31:36;18.30;;;9.20;;
3795;SDS011;1913;50.660;7.834;2023-10-08T07:34:03;33.33;;;16.67;;
3795;SDS011;1913;50.660;7.834;2023-10-08T07:36:45;52.27;;;26.90;;
3795;SDS011;1913;50.660;7.834;2023-10-08T07:39:12;31.97;;;18.17;;
3795;SDS011;1913;50.660;7.834;2023-10-08T07:42:04;35.13;;;16.60;;
3795;SDS011;1913;50.660;7.834;2023-10-08T07:44:31;30.20;;;15.70;;
3795;SDS011;1913;50.660;7.834;2023-10-08T07:47:01;41.37;;;24.40;;
3795;SDS011;1913;50.660;7.834;2023-10-08T07:49:30;11.83;;;6.67;;
3795;SDS011;1913;50.660;7.834;2023-10-08T07:51:57;15.87;;;6.70;;
3795;SDS011;1913;50.660;7.834;2023-10-08T07:54:24;13.80;;;7.00;;
3795;SDS011;1913;50.660;7.834;2023-10-08T07:56:53;23.03;;;7.23;;
3795;SDS011;1913;50.660;7.834;2023-10-08T07:59:34;14.57;;;7.37;;
3795;SDS011;1913;50.660;7.834;2023-10-08T08:02:03;16.47;;;6.23;;
3795;SDS011;1913;50.660;7.834;2023-10-08T08:04:44;15.60;;;6.30;;
3795;SDS011;1913;50.660;7.834;2023-10-08T08:07:10;16.50;;;7.07;;
3795;SDS011;1913;50.660;7.834;2023-10-08T08:09:44;12.27;;;7.07;;
3795;SDS011;1913;50.660;7.834;2023-10-08T08:12:20;11.13;;;6.40;;
3795;SDS011;1913;50.660;7.834;2023-10-08T08:14:53;11.50;;;5.80;;
3795;SDS011;1913;50.660;7.834;2023-10-08T08:17:19;12.73;;;6.23;;
3795;SDS011;1913;50.660;7.834;2023-10-08T08:19:50;12.80;;;5.67;;
3795;SDS011;1913;50.660;7.834;2023-10-08T08:22:17;14.30;;;6.30;;
3795;SDS011;1913;50.660;7.834;2023-10-08T08:24:47;15.17;;;6.30;;
3795;SDS011;1913;50.660;7.834;2023-10-08T08:27:18;10.77;;;5.23;;
3795;SDS011;1913;50.660;7.834;2023-10-08T08:29:52;10.80;;;6.10;;
3795;SDS011;1913;50.660;7.834;2023-10-08T08:32:23;13.37;;;6.37;;
3795;SDS011;1913;50.660;7.834;2023-10-08T08:34:49;11.97;;;5.77;;
3795;SDS011;1913;50.660;7.834;2023-10-08T08:37:18;11.00;;;6.37;;
3795;SDS011;1913;50.660;7.834;2023-10-08T08:39:44;11.00;;;5.83;;
3795;SDS011;1913;50.660;7.834;2023-10-08T08:42:10;15.00;;;6.70;;
3795;SDS011;1913;50.660;7.834;2023-10-08T08:44:38;13.67;;;6.00;;
3795;SDS011;1913;50.660;7.834;2023-10-08T08:47:13;14.50;;;6.50;;
3795;SDS011;1913;50.660;7.834;2023-10-08T08:49:45;8.90;;;5.90;;
3795;SDS011;1913;50.660;7.834;2023-10-08T08:52:11;11.77;;;6.37;;
3795;SDS011;1913;50.660;7.834;2023-10-08T08:54:42;8.90;;;5.53;;
3795;SDS011;1913;50.660;7.834;2023-10-08T08:57:09;16.60;;;6.70;;
3795;SDS011;1913;50.660;7.834;2023-10-08T08:59:49;16.80;;;7.20;;
3795;SDS011;1913;50.660;7.834;2023-10-08T09:02:20;13.10;;;7.37;;
3795;SDS011;1913;50.660;7.834;2023-10-08T09:04:47;13.30;;;6.80;;
3795;SDS011;1913;50.660;7.834;2023-10-08T09:07:14;15.73;;;6.30;;
3795;SDS011;1913;50.660;7.834;2023-10-08T09:09:40;14.93;;;6.10;;
3795;SDS011;1913;50.660;7.834;2023-10-08T09:12:06;10.57;;;6.17;;
3795;SDS011;1913;50.660;7.834;2023-10-08T09:14:35;10.93;;;5.83;;
3795;SDS011;1913;50.660;7.834;2023-10-08T09:17:01;11.80;;;6.40;;
3795;SDS011;1913;50.660;7.834;2023-10-08T09:19:29;11.43;;;6.10;;
3795;SDS011;1913;50.660;7.834;2023-10-08T09:24:33;16.57;;;6.83;;
3795;SDS011;1913;50.660;7.834;2023-10-08T09:27:02;14.83;;;6.50;;
3795;SDS011;1913;50.660;7.834;2023-10-08T09:29:28;14.97;;;6.33;;
3795;SDS011;1913;50.660;7.834;2023-10-08T09:31:57;11.40;;;5.33;;
3795;SDS011;1913;50.660;7.834;2023-10-08T09:34:28;13.00;;;6.50;;
3795;SDS011;1913;50.660;7.834;2023-10-08T09:36:55;17.00;;;6.67;;
3795;SDS011;1913;50.660;7.834;2023-10-08T09:39:21;18.20;;;7.93;;
3795;SDS011;1913;50.660;7.834;2023-10-08T09:41:56;12.87;;;6.53;;
3795;SDS011;1913;50.660;7.834;2023-10-08T09:44:23;15.90;;;7.00;;
3795;SDS011;1913;50.660;7.834;2023-10-08T09:49:32;14.70;;;7.80;;
3795;SDS011;1913;50.660;7.834;2023-10-08T09:52:02;18.60;;;8.40;;
3795;SDS011;1913;50.660;7.834;2023-10-08T09:54:31;13.73;;;7.90;;
3795;SDS011;1913;50.660;7.834;2023-10-08T09:57:08;14.73;;;7.80;;
3795;SDS011;1913;50.660;7.834;2023-10-08T09:59:35;19.83;;;8.13;;
3795;SDS011;1913;50.660;7.834;2023-10-08T10:02:03;22.43;;;10.93;;
3795;SDS011;1913;50.660;7.834;2023-10-08T10:04:30;18.30;;;9.60;;
3795;SDS011;1913;50.660;7.834;2023-10-08T10:07:07;29.10;;;16.20;;
3795;SDS011;1913;50.660;7.834;2023-10-08T10:09:37;22.50;;;9.83;;
3795;SDS011;1913;50.660;7.834;2023-10-08T10:12:03;25.70;;;9.50;;
3795;SDS011;1913;50.660;7.834;2023-10-08T10:14:41;17.53;;;9.00;;
3795;SDS011;1913;50.660;7.834;2023-10-08T10:17:28;21.23;;;9.20;;
3795;SDS011;1913;50.660;7.834;2023-10-08T10:20:00;20.67;;;9.67;;
3795;SDS011;1913;50.660;7.834;2023-10-08T10:22:27;20.00;;;9.40;;
3795;SDS011;1913;50.660;7.834;2023-10-08T10:24:58;19.90;;;10.00;;
3795;SDS011;1913;50.660;7.834;2023-10-08T10:27:25;20.43;;;8.50;;
3795;SDS011;1913;50.660;7.834;2023-10-08T10:29:51;19.93;;;8.30;;
3795;SDS011;1913;50.660;7.834;2023-10-08T10:32:29;16.40;;;7.93;;
3795;SDS011;1913;50.660;7.834;2023-10-08T10:34:54;18.37;;;8.40;;
3795;SDS011;1913;50.660;7.834;2023-10-08T10:37:20;22.23;;;9.20;;
3795;SDS011;1913;50.660;7.834;2023-10-08T10:39:56;23.97;;;9.93;;
3795;SDS011;1913;50.660;7.834;2023-10-08T10:42:25;21.70;;;9.73;;
3795;SDS011;1913;50.660;7.834;2023-10-08T10:44:53;19.33;;;9.50;;
3795;SDS011;1913;50.660;7.834;2023-10-08T10:47:20;17.60;;;9.50;;
3795;SDS011;1913;50.660;7.834;2023-10-08T10:49:47;22.60;;;9.90;;
3795;SDS011;1913;50.660;7.834;2023-10-08T10:52:16;25.57;;;9.80;;
3795;SDS011;1913;50.660;7.834;2023-10-08T10:55:03;24.30;;;10.33;;
3795;SDS011;1913;50.660;7.834;2023-10-08T10:57:54;23.37;;;9.97;;
3795;SDS011;1913;50.660;7.834;2023-10-08T11:00:24;21.37;;;9.60;;
3795;SDS011;1913;50.660;7.834;2023-10-08T11:03:00;19.27;;;8.87;;
3795;SDS011;1913;50.660;7.834;2023-10-08T11:05:41;20.63;;;9.50;;
3795;SDS011;1913;50.660;7.834;2023-10-08T11:08:13;18.37;;;9.00;;
3795;SDS011;1913;50.660;7.834;2023-10-08T11:10:41;19.37;;;7.83;;
3795;SDS011;1913;50.660;7.834;2023-10-08T11:13:13;24.20;;;8.67;;
3795;SDS011;1913;50.660;7.834;2023-10-08T11:15:45;19.80;;;10.47;;
3795;SDS011;1913;50.660;7.834;2023-10-08T11:18:26;19.60;;;8.87;;
3795;SDS011;1913;50.660;7.834;2023-10-08T11:21:04;17.20;;;10.00;;
3795;SDS011;1913;50.660;7.834;2023-10-08T11:23:43;18.17;;;8.90;;
3795;SDS011;1913;50.660;7.834;2023-10-08T11:26:14;22.50;;;9.93;;
3795;SDS011;1913;50.660;7.834;2023-10-08T11:28:41;25.80;;;10.40;;
3795;SDS011;1913;50.660;7.834;2023-10-08T11:31:07;18.33;;;8.87;;
3795;SDS011;1913;50.660;7.834;2023-10-08T11:33:36;13.10;;;8.47;;
3795;SDS011;1913;50.660;7.834;2023-10-08T11:36:04;16.17;;;9.07;;
3795;SDS011;1913;50.660;7.834;2023-10-08T11:38:52;15.80;;;9.70;;
3795;SDS011;1913;50.660;7.834;2023-10-08T11:41:26;17.50;;;9.60;;
3795;SDS011;1913;50.660;7.834;2023-10-08T11:43:53;20.63;;;10.23;;
3795;SDS011;1913;50.660;7.834;2023-10-08T11:49:03;14.73;;;9.23;;
3795;SDS011;1913;50.660;7.834;2023-10-08T11:51:30;19.60;;;9.73;;
3795;SDS011;1913;50.660;7.834;2023-10-08T11:53:57;24.30;;;9.80;;
3795;SDS011;1913;50.660;7.834;2023-10-08T11:56:23;19.67;;;9.67;;
3795;SDS011;1913;50.660;7.834;2023-10-08T11:58:49;20.70;;;10.10;;
3795;SDS011;1913;50.660;7.834;2023-10-08T12:01:16;19.80;;;10.27;;
3795;SDS011;1913;50.660;7.834;2023-10-08T12:03:43;19.53;;;11.03;;
3795;SDS011;1913;50.660;7.834;2023-10-08T12:06:09;24.53;;;11.37;;
3795;SDS011;1913;50.660;7.834;2023-10-08T12:08:40;24.27;;;11.27;;
3795;SDS011;1913;50.660;7.834;2023-10-08T12:11:07;24.37;;;10.53;;
3795;SDS011;1913;50.660;7.834;2023-10-08T12:13:37;25.00;;;11.43;;
3795;SDS011;1913;50.660;7.834;2023-10-08T12:16:03;24.03;;;11.80;;
3795;SDS011;1913;50.660;7.834;2023-10-08T12:18:37;27.57;;;11.03;;
3795;SDS011;1913;50.660;7.834;2023-10-08T12:21:09;24.50;;;10.40;;
3795;SDS011;1913;50.660;7.834;2023-10-08T12:23:40;21.27;;;11.23;;
3795;SDS011;1913;50.660;7.834;2023-10-08T12:26:08;19.50;;;11.73;;
3795;SDS011;1913;50.660;7.834;2023-10-08T12:28:34;23.23;;;11.47;;
3795;SDS011;1913;50.660;7.834;2023-10-08T12:31:01;22.07;;;11.60;;
3795;SDS011;1913;50.660;7.834;2023-10-08T12:33:28;19.40;;;11.23;;
3795;SDS011;1913;50.660;7.834;2023-10-08T12:35:55;23.07;;;11.10;;
3795;SDS011;1913;50.660;7.834;2023-10-08T12:38:21;28.80;;;12.10;;
3795;SDS011;1913;50.660;7.834;2023-10-08T12:40:47;24.30;;;11.73;;
3795;SDS011;1913;50.660;7.834;2023-10-08T12:43:17;25.27;;;11.73;;
3795;SDS011;1913;50.660;7.834;2023-10-08T12:45:47;20.00;;;11.50;;
3795;SDS011;1913;50.660;7.834;2023-10-08T12:48:17;23.27;;;11.47;;
3795;SDS011;1913;50.660;7.834;2023-10-08T12:50:47;22.10;;;12.10;;
3795;SDS011;1913;50.660;7.834;2023-10-08T12:53:21;22.30;;;10.77;;
3795;SDS011;1913;50.660;7.834;2023-10-08T12:55:59;22.00;;;11.10;;
3795;SDS011;1913;50.660;7.834;2023-10-08T12:58:30;21.33;;;10.00;;
3795;SDS011;1913;50.660;7.834;2023-10-08T13:00:59;19.60;;;10.13;;
3795;SDS011;1913;50.660;7.834;2023-10-08T13:03:28;20.50;;;10.07;;
3795;SDS011;1913;50.660;7.834;2023-10-08T13:05:58;19.70;;;10.53;;
3795;SDS011;1913;50.660;7.834;2023-10-08T13:08:30;20.63;;;10.80;;
3795;SDS011;1913;50.660;7.834;2023-10-08T13:10:57;21.27;;;10.47;;
3795;SDS011;1913;50.660;7.834;2023-10-08T13:13:26;24.27;;;11.50;;
3795;SDS011;1913;50.660;7.834;2023-10-08T13:16:01;16.83;;;9.57;;
3795;SDS011;1913;50.660;7.834;2023-10-08T13:18:35;23.03;;;11.20;;
3795;SDS011;1913;50.660;7.834;2023-10-08T13:21:02;25.13;;;11.87;;
3795;SDS011;1913;50.660;7.834;2023-10-08T13:23:29;18.73;;;9.60;;
3795;SDS011;1913;50.660;7.834;2023-10-08T13:25:55;20.70;;;10.40;;
3795;SDS011;1913;50.660;7.834;2023-10-08T13:28:23;25.60;;;10.40;;
3795;SDS011;1913;50.660;7.834;2023-10-08T13:30:51;23.57;;;10.80;;
3795;SDS011;1913;50.660;7.834;2023-10-08T13:33:21;25.17;;;11.50;;
3795;SDS011;1913;50.660;7.834;2023-10-08T13:35:47;24.50;;;11.23;;
3795;SDS011;1913;50.660;7.834;2023-10-08T13:38:17;23.57;;;11.13;;
3795;SDS011;1913;50.660;7.834;2023-10-08T13:40:51;31.60;;;12.43;;
3795;SDS011;1913;50.660;7.834;2023-10-08T13:43:31;23.50;;;12.10;;
3795;SDS011;1913;50.660;7.834;2023-10-08T13:46:05;25.97;;;11.83;;
3795;SDS011;1913;50.660;7.834;2023-10-08T13:48:37;26.77;;;12.50;;
3795;SDS011;1913;50.660;7.834;2023-10-08T13:51:03;31.27;;;11.80;;
3795;SDS011;1913;50.660;7.834;2023-10-08T13:53:33;27.47;;;10.70;;
3795;SDS011;1913;50.660;7.834;2023-10-08T13:56:00;39.17;;;12.80;;
3795;SDS011;1913;50.660;7.834;2023-10-08T13:58:27;24.27;;;11.10;;
3795;SDS011;1913;50.660;7.834;2023-10-08T14:00:59;27.63;;;12.20;;
3795;SDS011;1913;50.660;7.834;2023-10-08T14:03:26;22.70;;;11.07;;
3795;SDS011;1913;50.660;7.834;2023-10-08T14:05:59;24.13;;;10.77;;
3795;SDS011;1913;50.660;7.834;2023-10-08T14:08:31;29.83;;;12.70;;
3795;SDS011;1913;50.660;7.834;2023-10-08T14:10:57;30.80;;;11.47;;
3795;SDS011;1913;50.660;7.834;2023-10-08T14:13:31;28.73;;;11.93;;
3795;SDS011;1913;50.660;7.834;2023-10-08T14:16:01;33.40;;;13.73;;
3795;SDS011;1913;50.660;7.834;2023-10-08T14:18:33;25.23;;;11.80;;
3795;SDS011;1913;50.660;7.834;2023-10-08T14:21:09;20.97;;;11.50;;
3795;SDS011;1913;50.660;7.834;2023-10-08T14:23:38;30.50;;;12.07;;
3795;SDS011;1913;50.660;7.834;2023-10-08T14:26:08;29.63;;;11.87;;
3795;SDS011;1913;50.660;7.834;2023-10-08T14:28:34;23.63;;;10.83;;
3795;SDS011;1913;50.660;7.834;2023-10-08T14:31:09;27.77;;;11.77;;
3795;SDS011;1913;50.660;7.834;2023-10-08T14:33:41;28.83;;;11.30;;
3795;SDS011;1913;50.660;7.834;2023-10-08T14:36:09;24.23;;;11.00;;
3795;SDS011;1913;50.660;7.834;2023-10-08T14:38:53;28.63;;;12.50;;
3795;SDS011;1913;50.660;7.834;2023-10-08T14:41:36;23.70;;;11.30;;
3795;SDS011;1913;50.660;7.834;2023-10-08T14:44:20;19.50;;;10.00;;
3795;SDS011;1913;50.660;7.834;2023-10-08T14:46:46;20.87;;;9.97;;
3795;SDS011;1913;50.660;7.834;2023-10-08T14:49:11;27.90;;;11.27;;
3795;SDS011;1913;50.660;7.834;2023-10-08T14:51:38;25.83;;;10.73;;
3795;SDS011;1913;50.660;7.834;2023-10-08T14:54:08;23.00;;;10.30;;
3795;SDS011;1913;50.660;7.834;2023-10-08T14:56:34;27.80;;;10.83;;
3795;SDS011;1913;50.660;7.834;2023-10-08T14:59:01;21.87;;;10.93;;
3795;SDS011;1913;50.660;7.834;2023-10-08T15:01:27;23.27;;;11.13;;
3795;SDS011;1913;50.660;7.834;2023-10-08T15:03:53;20.43;;;9.90;;
3795;SDS011;1913;50.660;7.834;2023-10-08T15:06:20;24.77;;;11.73;;
3795;SDS011;1913;50.660;7.834;2023-10-08T15:08:48;22.17;;;9.90;;
3795;SDS011;1913;50.660;7.834;2023-10-08T15:11:19;23.30;;;10.37;;
3795;SDS011;1913;50.660;7.834;2023-10-08T15:13:53;22.90;;;9.50;;
3795;SDS011;1913;50.660;7.834;2023-10-08T15:16:20;25.37;;;10.50;;
3795;SDS011;1913;50.660;7.834;2023-10-08T15:18:48;34.53;;;11.43;;
3795;SDS011;1913;50.660;7.834;2023-10-08T15:21:18;19.00;;;10.70;;
3795;SDS011;1913;50.660;7.834;2023-10-08T15:23:44;20.97;;;9.90;;
3795;SDS011;1913;50.660;7.834;2023-10-08T15:26:10;20.33;;;10.50;;
3795;SDS011;1913;50.660;7.834;2023-10-08T15:28:37;26.50;;;11.23;;
3795;SDS011;1913;50.660;7.834;2023-10-08T15:31:05;18.33;;;9.57;;
3795;SDS011;1913;50.660;7.834;2023-10-08T15:33:32;26.10;;;10.67;;
3795;SDS011;1913;50.660;7.834;2023-10-08T15:35:57;24.53;;;9.93;;